createdAt,value
2023-02-01T00:01:19.860Z,142839.00
2023-02-01T00:03:47.796Z,142809.00
2023-02-01T00:06:15.844Z,142804.00
2023-02-01T00:08:43.702Z,142797.00
2023-02-01T00:11:13.768Z,142849.00
2023-02-01T00:13:43.786Z,142710.00
2023-02-01T00:16:15.426Z,142672.00
2023-02-01T00:18:45.186Z,142699.00
2023-02-01T00:21:13.963Z,142673.00
2023-02-01T00:23:42.115Z,142569.00
2023-02-01T00:26:17.235Z,142728.00
2023-02-01T00:28:45.184Z,142712.00
2023-02-01T00:31:13.524Z,142633.00
2023-02-01T00:33:41.472Z,142703.00
2023-02-01T00:36:12.376Z,142671.00
2023-02-01T00:38:41.036Z,142734.00
2023-02-01T00:41:13.497Z,142615.00
2023-02-01T00:43:41.972Z,142745.00
2023-02-01T00:46:10.332Z,142695.00
2023-02-01T00:48:38.608Z,142587.00
2023-02-01T00:51:11.043Z,142654.00
2023-02-01T00:53:39.456Z,142671.00
2023-02-01T00:56:08.539Z,142597.00
2023-02-01T00:58:36.639Z,142536.00
2023-02-01T01:01:08.258Z,142402.00
2023-02-01T01:03:38.977Z,142510.00
2023-02-01T01:06:11.344Z,142501.00
2023-02-01T01:08:40.341Z,142534.00
2023-02-01T01:11:10.288Z,142421.00
2023-02-01T01:13:38.928Z,142371.00
2023-02-01T01:16:09.231Z,142426.00
2023-02-01T01:18:38.231Z,142440.00
2023-02-01T01:21:07.645Z,142417.00
2023-02-01T01:23:37.909Z,142432.00
2023-02-01T01:26:08.735Z,142434.00
2023-02-01T01:28:36.994Z,142429.00
2023-02-01T01:31:10.103Z,142506.00
2023-02-01T01:33:38.308Z,142603.00
2023-02-01T01:36:07.946Z,142526.00
2023-02-01T01:38:37.428Z,142719.00
2023-02-01T01:41:05.878Z,142741.00
2023-02-01T01:43:52.172Z,142668.00
2023-02-01T01:46:23.376Z,142639.00
2023-02-01T01:48:58.762Z,142608.00
2023-02-01T01:51:32.293Z,142603.00
2023-02-01T01:54:10.112Z,142734.00
2023-02-01T01:56:38.307Z,142673.00
2023-02-01T01:59:07.431Z,142701.00
2023-02-01T02:01:35.471Z,142573.00
2023-02-01T02:04:04.638Z,142710.00
2023-02-01T02:06:42.458Z,142752.00
2023-02-01T02:09:12.049Z,142630.00
2023-02-01T02:11:39.971Z,142616.00
2023-02-01T02:14:13.607Z,142681.00
2023-02-01T02:16:57.507Z,142595.00
2023-02-01T02:20:10.484Z,142570.00
2023-02-01T02:23:29.126Z,142581.00
2023-02-01T02:26:27.065Z,142769.00
2023-02-01T02:29:43.729Z,142689.00
2023-02-01T02:32:50.473Z,142506.00
2023-02-01T02:35:34.280Z,142536.00
2023-02-01T02:38:17.188Z,142498.00
2023-02-01T02:40:57.571Z,142607.00
2023-02-01T02:43:52.582Z,142642.00
2023-02-01T02:46:45.212Z,142597.00
2023-02-01T02:49:21.119Z,142498.00
2023-02-01T02:52:15.303Z,142657.00
2023-02-01T02:54:49.913Z,142523.00
2023-02-01T02:57:42.780Z,142592.00
2023-02-01T03:00:32.709Z,142710.00
2023-02-01T03:03:18.400Z,142664.00
2023-02-01T03:05:51.497Z,142709.00
2023-02-01T03:08:23.883Z,142579.00
2023-02-01T03:11:01.922Z,142628.00
2023-02-01T03:13:46.782Z,142662.00
2023-02-01T03:16:23.269Z,142532.00
2023-02-01T03:18:58.693Z,142479.00
2023-02-01T03:21:31.649Z,142495.00
2023-02-01T03:24:08.688Z,142328.00
2023-02-01T03:26:43.972Z,142455.00
2023-02-01T03:29:19.389Z,142442.00
2023-02-01T03:31:47.554Z,142441.00
2023-02-01T03:34:15.926Z,142471.00
2023-02-01T03:36:52.760Z,142472.00
2023-02-01T03:39:31.646Z,142457.00
2023-02-01T03:42:04.977Z,142564.00
2023-02-01T03:44:38.307Z,142464.00
2023-02-01T03:47:12.231Z,142581.00
2023-02-01T03:49:46.952Z,142478.00
2023-02-01T03:52:21.083Z,142471.00
2023-02-01T03:54:53.417Z,142385.00
2023-02-01T03:57:28.856Z,142393.00
2023-02-01T04:00:09.745Z,142330.00
2023-02-01T04:02:42.079Z,142344.00
2023-02-01T04:05:11.266Z,142264.00
2023-02-01T04:07:45.417Z,142182.00
2023-02-01T04:10:16.401Z,142170.00
2023-02-01T04:12:45.913Z,142160.00
2023-02-01T04:15:13.936Z,142181.00
2023-02-01T04:17:41.846Z,142292.00
2023-02-01T04:20:11.836Z,142295.00
2023-02-01T04:22:39.804Z,142242.00
2023-02-01T04:25:09.865Z,142278.00
2023-02-01T04:30:10.627Z,142336.00
2023-02-01T04:32:38.975Z,142269.00
2023-02-01T04:35:09.000Z,142136.00
2023-02-01T04:37:37.675Z,142263.00
2023-02-01T04:40:07.270Z,142203.00
2023-02-01T04:42:35.144Z,142112.00
2023-02-01T04:45:04.801Z,142148.00
2023-02-01T04:47:32.704Z,142171.00
2023-02-01T04:50:00.596Z,142166.00
2023-02-01T04:52:29.059Z,142178.00
2023-02-01T04:54:59.438Z,142188.00
2023-02-01T04:57:27.974Z,142145.00
2023-02-01T04:59:55.901Z,142150.00
2023-02-01T05:02:25.181Z,142188.00
2023-02-01T05:04:53.163Z,142293.00
2023-02-01T05:07:21.064Z,142286.00
2023-02-01T05:09:48.938Z,142188.00
2023-02-01T05:12:34.732Z,142187.00
2023-02-01T05:15:02.618Z,142226.00
2023-02-01T05:17:31.845Z,142239.00
2023-02-01T05:19:59.799Z,142187.00
2023-02-01T05:22:27.773Z,142255.00
2023-02-01T05:24:55.630Z,142341.00
2023-02-01T05:27:23.548Z,142380.00
2023-02-01T05:29:51.443Z,142286.00
2023-02-01T05:32:22.669Z,142317.00
2023-02-01T05:34:52.543Z,142250.00
2023-02-01T05:37:20.482Z,142377.00
2023-02-01T05:39:48.423Z,142389.00
2023-02-01T05:42:16.419Z,142420.00
2023-02-01T05:44:44.456Z,142415.00
2023-02-01T05:47:13.438Z,142431.00
2023-02-01T05:49:41.353Z,142420.00
2023-02-01T05:52:10.609Z,142459.00
2023-02-01T05:54:38.544Z,142387.00
2023-02-01T05:57:06.458Z,142387.00
2023-02-01T05:59:34.368Z,142417.00
2023-02-01T06:02:02.297Z,142470.00
2023-02-01T06:04:30.212Z,142374.00
2023-02-01T06:06:58.168Z,142535.00
2023-02-01T06:09:27.389Z,142477.00
2023-02-01T06:11:55.365Z,142446.00
2023-02-01T06:14:23.238Z,142460.00
2023-02-01T06:16:51.150Z,142489.00
2023-02-01T06:19:19.047Z,142545.00
2023-02-01T06:21:47.850Z,142560.00
2023-02-01T06:24:15.915Z,142512.00
2023-02-01T06:26:45.244Z,142598.00
2023-02-01T06:29:14.148Z,142588.00
2023-02-01T06:31:43.744Z,142519.00
2023-02-01T06:34:11.960Z,142423.00
2023-02-01T06:36:40.333Z,142632.00
2023-02-01T06:39:08.273Z,142635.00
2023-02-01T06:41:36.508Z,142632.00
2023-02-01T06:44:05.945Z,142504.00
2023-02-01T06:46:33.882Z,142561.00
2023-02-01T06:49:01.882Z,142625.00
2023-02-01T06:51:30.587Z,142655.00
2023-02-01T06:53:59.598Z,142644.00
2023-02-01T06:56:28.439Z,142602.00
2023-02-01T06:58:56.325Z,142555.00
2023-02-01T07:01:25.601Z,142428.00
2023-02-01T07:03:53.845Z,142505.00
2023-02-01T07:06:22.103Z,142374.00
2023-02-01T07:08:50.556Z,142525.00
2023-02-01T07:11:20.669Z,142377.00
2023-02-01T07:13:48.629Z,142407.00
2023-02-01T07:16:19.599Z,142496.00
2023-02-01T07:18:51.360Z,142496.00
2023-02-01T07:21:20.146Z,142382.00
2023-02-01T07:23:48.284Z,142401.00
2023-02-01T07:26:17.458Z,142399.00
2023-02-01T07:28:45.706Z,142423.00
2023-02-01T07:31:19.191Z,142478.00
2023-02-01T07:33:48.981Z,142411.00
2023-02-01T07:36:18.872Z,142337.00
2023-02-01T07:38:48.769Z,142383.00
2023-02-01T07:41:17.462Z,142464.00
2023-02-01T07:43:45.491Z,142500.00
2023-02-01T07:46:16.241Z,142513.00
2023-02-01T07:48:44.366Z,142653.00
2023-02-01T07:51:16.722Z,142672.00
2023-02-01T07:53:47.080Z,142675.00
2023-02-01T07:56:17.414Z,142674.00
2023-02-01T07:58:50.403Z,142711.00
2023-02-01T08:01:25.284Z,142705.00
2023-02-01T08:03:56.360Z,142674.00
2023-02-01T08:06:28.542Z,142788.00
2023-02-01T08:08:56.751Z,142792.00
2023-02-01T08:11:26.652Z,142851.00
2023-02-01T08:13:55.394Z,142868.00
2023-02-01T08:16:24.860Z,142949.00
2023-02-01T08:18:53.787Z,143033.00
2023-02-01T08:21:27.454Z,142953.00
2023-02-01T08:23:57.188Z,143001.00
2023-02-01T08:26:27.852Z,143059.00
2023-02-01T08:28:59.094Z,143068.00
2023-02-01T08:31:29.839Z,143114.00
2023-02-01T08:34:00.514Z,143115.00
2023-02-01T08:36:32.244Z,143102.00
2023-02-01T08:39:00.438Z,143151.00
2023-02-01T08:41:31.769Z,142970.00
2023-02-01T08:44:00.235Z,143156.00
2023-02-01T08:46:29.209Z,143173.00
2023-02-01T08:48:57.467Z,143231.00
2023-02-01T08:51:25.971Z,143218.00
2023-02-01T08:53:55.195Z,143355.00
2023-02-01T08:56:23.265Z,143776.00
2023-02-01T08:58:51.234Z,143850.00
2023-02-01T09:01:19.634Z,143773.00
2023-02-01T09:03:47.792Z,143812.00
2023-02-01T09:06:17.271Z,143831.00
2023-02-01T09:08:45.907Z,143759.00
2023-02-01T09:11:18.373Z,143780.00
2023-02-01T09:13:46.770Z,143712.00
2023-02-01T09:16:15.006Z,143799.00
2023-02-01T09:18:55.378Z,143789.00
2023-02-01T09:21:24.724Z,143741.00
2023-02-01T09:23:53.565Z,143729.00
2023-02-01T09:26:31.466Z,143549.00
2023-02-01T09:28:59.662Z,143809.00
2023-02-01T09:31:27.827Z,143713.00
2023-02-01T09:33:55.955Z,143790.00
2023-02-01T09:36:24.904Z,143771.00
2023-02-01T09:38:53.860Z,143870.00
2023-02-01T09:41:40.024Z,143913.00
2023-02-01T09:44:25.607Z,143948.00
2023-02-01T09:46:57.976Z,144039.00
2023-02-01T09:49:33.441Z,144028.00
2023-02-01T09:52:06.514Z,144089.00
2023-02-01T09:54:46.028Z,144053.00
2023-02-01T09:57:25.289Z,143997.00
2023-02-01T10:00:02.581Z,143980.00
2023-02-01T10:02:41.724Z,144054.00
2023-02-01T10:05:18.710Z,144100.00
2023-02-01T10:08:03.099Z,144101.00
2023-02-01T10:10:41.159Z,144041.00
2023-02-01T10:13:33.964Z,144084.00
2023-02-01T10:16:19.746Z,144084.00
2023-02-01T10:19:24.884Z,144103.00
2023-02-01T10:22:02.694Z,144132.00
2023-02-01T10:24:50.188Z,144184.00
2023-02-01T10:27:23.288Z,144144.00
2023-02-01T10:29:59.357Z,144273.00
2023-02-01T10:32:33.254Z,144234.00
2023-02-01T10:35:04.285Z,144207.00
2023-02-01T10:37:34.613Z,144165.00
2023-02-01T10:40:14.497Z,144232.00
2023-02-01T10:42:42.574Z,144273.00
2023-02-01T10:45:19.245Z,144229.00
2023-02-01T10:47:49.855Z,144282.00
2023-02-01T10:50:30.789Z,144236.00
2023-02-01T10:53:07.531Z,144141.00
2023-02-01T10:55:41.402Z,144156.00
2023-02-01T10:58:18.087Z,144267.00
2023-02-01T11:00:50.655Z,144232.00
2023-02-01T11:03:35.850Z,144403.00
2023-02-01T11:06:18.622Z,144435.00
2023-02-01T11:08:50.676Z,144358.00
2023-02-01T11:11:20.502Z,144506.00
2023-02-01T11:13:57.061Z,144454.00
2023-02-01T11:16:35.932Z,144655.00
2023-02-01T11:19:05.428Z,144645.00
2023-02-01T11:21:34.654Z,144658.00
2023-02-01T11:24:05.976Z,144750.00
2023-02-01T11:26:34.661Z,144808.00
2023-02-01T11:29:10.625Z,144819.00
2023-02-01T11:31:42.116Z,144845.00
2023-02-01T11:34:16.105Z,144904.00
2023-02-01T11:36:47.293Z,144800.00
2023-02-01T11:39:30.538Z,144915.00
2023-02-01T11:42:05.475Z,144838.00
2023-02-01T11:44:38.588Z,144689.00
2023-02-01T11:47:29.713Z,144726.00
2023-02-01T11:50:00.041Z,144465.00
2023-02-01T11:52:57.764Z,144666.00
2023-02-01T11:55:57.604Z,144718.00
2023-02-01T11:58:58.991Z,144388.00
2023-02-01T12:01:49.886Z,144363.00
2023-02-01T12:05:07.768Z,144325.00
2023-02-01T12:07:55.940Z,144414.00
2023-02-01T12:10:41.208Z,144439.00
2023-02-01T12:13:28.349Z,144475.00
2023-02-01T12:16:15.679Z,144470.00
2023-02-01T12:19:25.439Z,144557.00
2023-02-01T12:22:10.032Z,144620.00
2023-02-01T12:25:07.735Z,144576.00
2023-02-01T12:28:04.939Z,144654.00
2023-02-01T12:31:13.385Z,144787.00
2023-02-01T12:34:00.998Z,144779.00
2023-02-01T12:36:42.329Z,144763.00
2023-02-01T12:39:25.774Z,144861.00
2023-02-01T12:42:05.389Z,144852.00
2023-02-01T12:44:45.528Z,144839.00
2023-02-01T12:47:23.468Z,144738.00
2023-02-01T12:50:00.269Z,144799.00
2023-02-01T12:52:37.319Z,144760.00
2023-02-01T12:55:19.624Z,144691.00
2023-02-01T12:57:52.906Z,144652.00
2023-02-01T13:00:33.628Z,144643.00
2023-02-01T13:03:13.801Z,144656.00
2023-02-01T13:05:52.180Z,144578.00
2023-02-01T13:08:27.268Z,144608.00
2023-02-01T13:11:06.681Z,144685.00
2023-02-01T13:13:46.369Z,144821.00
2023-02-01T13:16:25.629Z,144750.00
2023-02-01T13:19:02.503Z,144869.00
2023-02-01T13:21:37.323Z,144724.00
2023-02-01T13:24:06.390Z,144532.00
2023-02-01T13:26:35.693Z,144472.00
2023-02-01T13:29:11.922Z,144310.00
2023-02-01T13:32:20.703Z,144130.00
2023-02-01T13:35:22.302Z,144261.00
2023-02-01T13:38:13.849Z,144264.00
2023-02-01T13:40:46.950Z,144262.00
2023-02-01T13:43:24.782Z,141938.00
2023-02-01T13:45:56.934Z,142003.00
2023-02-01T13:48:31.717Z,144254.00
2023-02-01T13:51:02.112Z,144204.00
2023-02-01T13:53:34.156Z,144190.00
2023-02-01T13:56:07.128Z,144174.00
2023-02-01T13:58:40.260Z,144077.00
2023-02-01T14:01:44.876Z,144070.00
2023-02-01T14:04:50.613Z,144128.00
2023-02-01T14:07:23.336Z,144105.00
2023-02-01T14:09:51.371Z,144098.00
2023-02-01T14:12:47.191Z,144048.00
2023-02-01T14:15:29.631Z,144139.00
2023-02-01T14:17:57.985Z,144065.00
2023-02-01T14:20:54.065Z,144038.00
2023-02-01T14:23:30.881Z,144041.00
2023-02-01T14:26:20.560Z,144096.00
2023-02-01T14:29:02.071Z,144102.00
2023-02-01T14:31:59.347Z,144172.00
2023-02-01T14:34:38.656Z,144340.00
2023-02-01T14:37:10.600Z,144279.00
2023-02-01T14:39:57.712Z,144339.00
2023-02-01T14:42:34.952Z,144183.00
2023-02-01T14:45:51.958Z,144370.00
2023-02-01T14:48:47.806Z,144320.00
2023-02-01T14:51:19.503Z,144414.00
2023-02-01T14:53:48.608Z,144411.00
2023-02-01T14:56:22.762Z,144260.00
2023-02-01T14:58:59.237Z,144254.00
2023-02-01T15:01:31.675Z,144067.00
2023-02-01T15:04:07.183Z,144191.00
2023-02-01T15:06:41.133Z,144171.00
2023-02-01T15:09:15.871Z,144167.00
2023-02-01T15:12:02.868Z,144079.00
2023-02-01T15:14:34.003Z,144190.00
2023-02-01T15:17:02.539Z,143934.00
2023-02-01T15:19:32.691Z,144046.00
2023-02-01T15:22:01.925Z,144045.00
2023-02-01T15:24:32.289Z,144134.00
2023-02-01T15:27:06.711Z,144106.00
2023-02-01T15:29:35.142Z,144151.00
2023-02-01T15:32:03.433Z,144155.00
2023-02-01T15:37:25.001Z,231737.00
2023-02-01T15:40:22.972Z,231737.00
2023-02-01T15:42:55.078Z,231737.00
2023-02-01T15:45:30.103Z,231737.00
2023-02-01T15:48:00.688Z,231737.00
2023-02-01T15:50:32.815Z,231737.00
2023-02-01T15:53:02.261Z,231737.00
2023-02-01T15:55:41.506Z,231737.00
2023-02-01T15:58:16.717Z,231737.00
2023-02-01T16:00:47.915Z,231737.00
2023-02-01T16:03:37.013Z,231737.00
2023-02-01T16:06:08.760Z,231737.00
2023-02-01T16:08:39.954Z,231737.00
2023-02-01T16:11:28.590Z,231737.00
2023-02-01T16:13:56.752Z,231737.00
2023-02-01T16:16:24.847Z,231737.00
2023-02-01T16:18:52.812Z,231737.00
2023-02-01T16:21:20.796Z,231737.00
2023-02-01T16:23:52.934Z,231737.00
2023-02-01T16:26:22.171Z,231737.00
2023-02-01T16:28:50.350Z,231737.00
2023-02-01T16:31:25.534Z,231737.00
2023-02-01T16:33:54.123Z,231737.00
2023-02-01T16:36:23.108Z,231737.00
2023-02-01T16:38:54.682Z,231737.00
2023-02-01T16:41:25.185Z,231737.00
2023-02-01T16:43:55.849Z,231737.00
2023-02-01T16:46:26.810Z,231737.00
2023-02-01T16:48:58.767Z,231737.00
2023-02-01T16:51:33.434Z,231737.00
2023-02-01T16:54:04.024Z,231737.00
2023-02-01T16:56:34.658Z,231737.00
2023-02-01T16:59:02.927Z,231737.00
2023-02-01T17:01:30.836Z,231737.00
2023-02-01T17:03:58.997Z,231737.00
2023-02-01T17:06:28.686Z,231737.00
2023-02-01T17:08:59.802Z,231737.00
2023-02-01T17:11:30.834Z,231737.00
2023-02-01T17:14:10.014Z,231737.00
2023-02-01T17:16:38.188Z,231737.00
2023-02-01T17:19:14.943Z,231737.00
2023-02-01T17:21:47.221Z,231737.00
2023-02-01T17:24:16.591Z,231737.00
2023-02-01T17:26:46.928Z,231737.00
2023-02-01T17:29:15.175Z,231737.00
2023-02-01T17:31:47.086Z,231737.00
2023-02-01T17:34:17.346Z,231737.00
2023-02-01T17:36:47.831Z,231737.00
2023-02-01T17:39:37.243Z,231737.00
2023-02-01T17:42:10.082Z,231737.00
2023-02-01T17:44:38.141Z,231737.00
2023-02-01T17:47:06.174Z,231737.00
2023-02-01T17:49:35.819Z,231737.00
2023-02-01T17:52:04.012Z,231737.00
2023-02-01T17:54:32.001Z,231737.00
2023-02-01T17:57:03.425Z,231737.00
2023-02-01T17:59:32.689Z,231737.00
2023-02-01T18:02:02.151Z,231737.00
2023-02-01T18:04:30.118Z,231737.00
2023-02-01T18:06:58.513Z,231737.00
2023-02-01T18:09:26.421Z,231737.00
2023-02-01T18:11:55.678Z,231737.00
2023-02-01T18:14:23.541Z,231737.00
2023-02-01T18:16:52.835Z,231737.00
2023-02-01T18:19:20.802Z,231737.00
2023-02-01T18:21:49.244Z,231737.00
2023-02-01T18:24:19.309Z,231737.00
2023-02-01T18:26:47.407Z,231737.00
2023-02-01T18:29:15.720Z,231737.00
2023-02-01T18:31:48.093Z,231737.00
2023-02-01T18:34:22.309Z,231737.00
2023-02-01T18:36:50.607Z,231737.00
2023-02-01T18:39:19.150Z,231737.00
2023-02-01T18:41:51.726Z,231737.00
2023-02-01T18:44:19.683Z,231737.00
2023-02-01T18:46:47.739Z,231737.00
2023-02-01T18:49:18.720Z,231737.00
2023-02-01T18:51:47.449Z,231737.00
2023-02-01T18:54:15.997Z,231737.00
2023-02-01T18:56:43.977Z,231737.00
2023-02-01T18:59:12.169Z,231737.00
2023-02-01T19:01:40.314Z,231737.00
2023-02-01T19:04:16.809Z,231737.00
2023-02-01T19:06:55.429Z,231737.00
2023-02-01T19:09:23.421Z,231737.00
2023-02-01T19:11:51.371Z,231737.00
2023-02-01T19:14:19.288Z,231737.00
2023-02-01T19:16:47.292Z,231737.00
2023-02-01T19:19:15.280Z,231737.00
2023-02-01T19:21:43.208Z,231737.00
2023-02-01T19:24:12.496Z,231737.00
2023-02-01T19:26:42.317Z,231737.00
2023-02-01T19:29:10.714Z,231737.00
2023-02-01T19:31:38.837Z,231737.00
2023-02-01T19:34:06.832Z,231737.00
2023-02-01T19:36:40.354Z,231737.00
2023-02-01T19:39:11.912Z,231737.00
2023-02-01T19:41:39.821Z,231737.00
2023-02-01T19:44:09.057Z,231737.00
2023-02-01T19:46:37.079Z,231737.00
2023-02-01T19:49:07.830Z,231737.00
2023-02-01T19:51:35.759Z,231737.00
2023-02-01T19:54:03.821Z,231737.00
2023-02-01T19:56:33.210Z,231737.00
2023-02-01T19:59:01.265Z,231737.00
2023-02-01T20:01:28.575Z,231737.00
2023-02-01T20:04:01.658Z,231737.00
2023-02-01T20:06:30.966Z,231737.00
2023-02-01T20:08:59.521Z,231737.00
2023-02-01T20:11:27.697Z,231737.00
2023-02-01T20:14:00.231Z,231737.00
2023-02-01T20:16:28.315Z,231737.00
2023-02-01T20:18:56.705Z,231737.00
2023-02-01T20:21:24.643Z,231737.00
2023-02-01T20:23:52.553Z,231737.00
2023-02-01T20:26:25.242Z,231737.00
2023-02-01T20:28:54.739Z,231737.00
2023-02-01T20:31:28.621Z,231737.00
2023-02-01T20:33:57.733Z,231737.00
2023-02-01T20:36:26.425Z,231737.00
2023-02-01T20:38:55.833Z,231737.00
2023-02-01T20:41:24.605Z,231737.00
2023-02-01T20:43:53.207Z,231737.00
2023-02-01T20:46:22.989Z,231737.00
2023-02-01T20:48:52.465Z,231737.00
2023-02-01T20:51:22.500Z,231737.00
2023-02-01T20:53:54.173Z,231737.00
2023-02-01T20:56:22.860Z,231737.00
2023-02-01T20:58:50.928Z,231737.00
2023-02-01T21:01:18.880Z,231737.00
2023-02-01T21:03:48.110Z,231737.00
2023-02-01T21:06:16.315Z,231737.00
2023-02-01T21:08:44.196Z,231737.00
2023-02-01T21:11:15.398Z,231737.00
2023-02-01T21:13:50.474Z,231737.00
2023-02-01T21:16:22.178Z,231737.00
2023-02-01T21:18:54.741Z,231737.00
2023-02-01T21:21:22.955Z,231737.00
2023-02-01T21:23:52.756Z,231737.00
2023-02-01T21:26:24.584Z,231737.00
2023-02-01T21:28:55.361Z,231737.00
2023-02-01T21:31:25.780Z,231737.00
2023-02-01T21:33:55.050Z,231737.00
2023-02-01T21:36:23.401Z,231737.00
2023-02-01T21:38:55.054Z,231737.00
2023-02-01T21:41:43.412Z,231737.00
2023-02-01T21:44:14.506Z,231737.00
2023-02-01T21:46:42.910Z,231737.00
2023-02-01T21:49:12.786Z,231737.00
2023-02-01T21:51:41.853Z,231737.00
2023-02-01T21:54:12.837Z,231737.00
2023-02-01T21:56:42.110Z,231737.00
2023-02-01T21:59:11.368Z,231737.00
2023-02-01T22:01:40.959Z,231737.00
2023-02-01T22:04:10.112Z,231737.00
2023-02-01T22:06:42.258Z,231737.00
2023-02-01T22:09:18.700Z,231737.00
2023-02-01T22:11:47.117Z,231737.00
2023-02-01T22:14:16.003Z,231737.00
2023-02-01T22:16:44.424Z,231737.00
2023-02-01T22:19:13.347Z,231737.00
2023-02-01T22:21:45.582Z,231737.00
2023-02-01T22:24:17.880Z,231737.00
2023-02-01T22:26:46.031Z,231737.00
2023-02-01T22:29:14.681Z,231737.00
2023-02-01T22:31:43.177Z,231737.00
2023-02-01T22:34:12.592Z,231737.00
2023-02-01T22:36:42.286Z,231737.00
2023-02-01T22:39:11.011Z,231737.00
2023-02-01T22:41:39.054Z,231737.00
2023-02-01T22:44:07.815Z,231737.00
2023-02-01T22:46:35.904Z,231737.00
2023-02-01T22:49:05.213Z,231737.00
2023-02-01T22:51:34.428Z,231737.00
2023-02-01T22:54:03.793Z,231737.00
2023-02-01T22:56:33.784Z,231737.00
2023-02-01T22:59:04.775Z,231737.00
2023-02-01T23:01:33.970Z,231737.00
2023-02-01T23:04:05.224Z,231737.00
2023-02-01T23:06:34.813Z,231737.00
2023-02-01T23:09:11.135Z,231737.00
2023-02-01T23:11:39.913Z,231737.00
2023-02-01T23:14:08.648Z,231737.00
2023-02-01T23:16:36.660Z,231737.00
2023-02-01T23:19:04.905Z,231737.00
2023-02-01T23:21:33.168Z,231737.00
2023-02-01T23:24:04.764Z,231737.00
2023-02-01T23:26:33.222Z,231737.00
2023-02-01T23:29:02.936Z,231737.00
2023-02-01T23:31:34.285Z,231737.00
2023-02-01T23:34:04.768Z,231737.00
2023-02-01T23:36:34.158Z,231737.00
2023-02-01T23:39:03.535Z,231737.00
2023-02-01T23:41:31.765Z,231737.00
2023-02-01T23:43:58.868Z,231737.00
2023-02-01T23:46:34.582Z,231737.00
2023-02-01T23:49:04.777Z,231737.00
2023-02-01T23:51:33.806Z,231737.00
2023-02-01T23:54:03.823Z,231737.00
2023-02-01T23:56:35.418Z,231737.00
2023-02-01T23:59:06.304Z,231737.00
